TFV009 EBCI-LGTS
Flight info
| Callsign | TFV009 |
|---|---|
| Flight time | N/A |
| Altitude | 37000 |
| Route | SOPOK Y863 ROPUV L607 ULNOK DCT VIBOM DCT NOMBO DCT RIDAR DCT RADIZ DCT NEMEK DCT MEDUX UM867 KOGAT DCT ERANA T389 ALIKO |
| Aircraft | B738/M-SDE2E3FGHIRWXY/LB1 |
Departure
| Time | 2026-05-05 15:36 |
|---|---|
| Airport | Brussels South Charleroi Airport (EBCI) |
Arrival
| Time | N/A |
|---|---|
| Airport | Thessaloniki Macedonia International Airport (LGTS) |
| Time | Latitude | Longitude | Altitude | Speed | Heading |
|---|---|---|---|---|---|
| 2026-05-05 15:34 | 50.45582 | 4.43893 | 637 ft | 19 kts | 66° |
| 2026-05-05 15:35 | 50.45656 | 4.44146 | 635 ft | 51 kts | 64° |
| 2026-05-05 15:35 | 50.45909 | 4.45002 | 631 ft | 121 kts | 67° |
| 2026-05-05 15:35 | 50.46326 | 4.46498 | 702 ft | 171 kts | 64° |
| 2026-05-05 15:35 | 50.46829 | 4.48298 | 1209 ft | 192 kts | 63° |
| 2026-05-05 15:36 | 50.47699 | 4.49770 | 2124 ft | 180 kts | 21° |
| 2026-05-05 15:36 | 50.48931 | 4.50147 | 2863 ft | 188 kts | 19° |
| 2026-05-05 15:36 | 50.49955 | 4.51508 | 3048 ft | 209 kts | 60° |
| 2026-05-05 15:36 | 50.50630 | 4.53634 | 3358 ft | 222 kts | 59° |
| 2026-05-05 15:37 | 50.51448 | 4.55743 | 3821 ft | 228 kts | 56° |
| 2026-05-05 15:37 | 50.52335 | 4.57822 | 4370 ft | 230 kts | 54° |
| 2026-05-05 15:37 | 50.53257 | 4.59863 | 4906 ft | 233 kts | 53° |
| 2026-05-05 15:37 | 50.54229 | 4.61906 | 5511 ft | 231 kts | 53° |
| 2026-05-05 15:38 | 50.55209 | 4.63914 | 6061 ft | 235 kts | 53° |
| 2026-05-05 15:38 | 50.56231 | 4.65999 | 6459 ft | 242 kts | 53° |
| 2026-05-05 15:38 | 50.57277 | 4.68098 | 6952 ft | 248 kts | 53° |
| 2026-05-05 15:38 | 50.58326 | 4.70238 | 7536 ft | 248 kts | 53° |
| 2026-05-05 15:39 | 50.59383 | 4.72403 | 8043 ft | 252 kts | 53° |
| 2026-05-05 15:39 | 50.60460 | 4.74600 | 8563 ft | 255 kts | 53° |
| 2026-05-05 15:39 | 50.61542 | 4.76800 | 9145 ft | 256 kts | 53° |
| 2026-05-05 15:39 | 50.62634 | 4.79028 | 9660 ft | 260 kts | 53° |
| 2026-05-05 15:40 | 50.63745 | 4.81293 | 10129 ft | 263 kts | 53° |
| 2026-05-05 15:40 | 50.64859 | 4.83566 | 10624 ft | 263 kts | 54° |
| 2026-05-05 15:40 | 50.65927 | 4.85919 | 11002 ft | 266 kts | 64° |
| 2026-05-05 15:40 | 50.66319 | 4.88739 | 11410 ft | 267 kts | 92° |
| 2026-05-05 15:41 | 50.65970 | 4.91606 | 11845 ft | 268 kts | 106° |
| 2026-05-05 15:41 | 50.65415 | 4.94426 | 12280 ft | 270 kts | 108° |
| 2026-05-05 15:41 | 50.64836 | 4.97259 | 12647 ft | 274 kts | 108° |
| 2026-05-05 15:41 | 50.64252 | 5.00117 | 13087 ft | 276 kts | 108° |
| 2026-05-05 15:42 | 50.63669 | 5.03009 | 13500 ft | 277 kts | 108° |
| 2026-05-05 15:42 | 50.63089 | 5.05913 | 13897 ft | 279 kts | 108° |
| 2026-05-05 15:42 | 50.62508 | 5.08836 | 14298 ft | 280 kts | 108° |
| 2026-05-05 15:42 | 50.61925 | 5.11776 | 14661 ft | 282 kts | 108° |
| 2026-05-05 15:43 | 50.61336 | 5.14752 | 14955 ft | 288 kts | 109° |
| 2026-05-05 15:43 | 50.60737 | 5.17770 | 15340 ft | 289 kts | 109° |
| 2026-05-05 15:43 | 50.60138 | 5.20789 | 15742 ft | 289 kts | 110° |
| 2026-05-05 15:43 | 50.59527 | 5.23817 | 16083 ft | 291 kts | 112° |
| 2026-05-05 15:44 | 50.58470 | 5.26484 | 16388 ft | 288 kts | 136° |
| 2026-05-05 15:44 | 50.57055 | 5.28711 | 16774 ft | 288 kts | 138° |
| 2026-05-05 15:44 | 50.55616 | 5.30914 | 17127 ft | 289 kts | 138° |
| 2026-05-05 15:44 | 50.54169 | 5.33122 | 17492 ft | 291 kts | 138° |
| 2026-05-05 15:45 | 50.52719 | 5.35340 | 17856 ft | 292 kts | 139° |
| 2026-05-05 15:45 | 50.51262 | 5.37577 | 18163 ft | 294 kts | 138° |
| 2026-05-05 15:45 | 50.49816 | 5.39799 | 18447 ft | 295 kts | 138° |
| 2026-05-05 15:45 | 50.48348 | 5.42060 | 18764 ft | 296 kts | 138° |
| 2026-05-05 15:46 | 50.46879 | 5.44324 | 19060 ft | 297 kts | 138° |
| 2026-05-05 15:46 | 50.45400 | 5.46601 | 19339 ft | 299 kts | 138° |
| 2026-05-05 15:46 | 50.43899 | 5.48911 | 19522 ft | 307 kts | 138° |
| 2026-05-05 15:46 | 50.42337 | 5.51311 | 19575 ft | 322 kts | 138° |
| 2026-05-05 15:47 | 50.40671 | 5.53869 | 19694 ft | 339 kts | 138° |
| 2026-05-05 15:47 | 50.39536 | 5.55611 | 19752 ft | 349 kts | 137° |
| 2026-05-05 15:47 | 50.37172 | 5.59239 | 19904 ft | 369 kts | 137° |
| 2026-05-05 15:47 | 50.35301 | 5.62109 | 20021 ft | 384 kts | 137° |
| 2026-05-05 15:48 | 50.33358 | 5.65088 | 20118 ft | 397 kts | 137° |
| 2026-05-05 15:48 | 50.31351 | 5.68160 | 20207 ft | 410 kts | 137° |
| 2026-05-05 15:48 | 50.29288 | 5.71314 | 20407 ft | 418 kts | 137° |
| 2026-05-05 15:48 | 50.27195 | 5.74510 | 20820 ft | 420 kts | 136° |
| 2026-05-05 15:49 | 50.25386 | 5.78097 | 21315 ft | 425 kts | 120° |
| 2026-05-05 15:49 | 50.24314 | 5.82414 | 21768 ft | 430 kts | 108° |
| 2026-05-05 15:49 | 50.23562 | 5.86955 | 22139 ft | 434 kts | 106° |
| 2026-05-05 15:49 | 50.22839 | 5.91542 | 22472 ft | 437 kts | 106° |
| 2026-05-05 15:50 | 50.22102 | 5.96166 | 22851 ft | 439 kts | 107° |
| 2026-05-05 15:50 | 50.21341 | 6.00798 | 23149 ft | 443 kts | 106° |
| 2026-05-05 15:50 | 50.20553 | 6.05474 | 23401 ft | 448 kts | 107° |
| 2026-05-05 15:50 | 50.19748 | 6.10183 | 23750 ft | 449 kts | 107° |
| 2026-05-05 15:51 | 50.18946 | 6.14897 | 24164 ft | 449 kts | 105° |
| 2026-05-05 15:51 | 50.18433 | 6.19708 | 24516 ft | 452 kts | 96° |
| 2026-05-05 15:51 | 50.18415 | 6.24634 | 24860 ft | 456 kts | 87° |
| 2026-05-05 15:51 | 50.18738 | 6.29565 | 25194 ft | 458 kts | 85° |
| 2026-05-05 15:52 | 50.19098 | 6.34513 | 25497 ft | 460 kts | 85° |
| 2026-05-05 15:52 | 50.19450 | 6.39478 | 25789 ft | 461 kts | 86° |
| 2026-05-05 15:52 | 50.19784 | 6.44462 | 26068 ft | 462 kts | 86° |
| 2026-05-05 15:52 | 50.20100 | 6.49448 | 26426 ft | 462 kts | 86° |
| 2026-05-05 15:53 | 50.20406 | 6.54445 | 26698 ft | 463 kts | 86° |
| 2026-05-05 15:53 | 50.20710 | 6.59471 | 26929 ft | 466 kts | 86° |
| 2026-05-05 15:53 | 50.21013 | 6.64513 | 27154 ft | 468 kts | 86° |
| 2026-05-05 15:53 | 50.21313 | 6.69570 | 27448 ft | 468 kts | 87° |
| 2026-05-05 15:54 | 50.21610 | 6.74616 | 27872 ft | 466 kts | 87° |
| 2026-05-05 15:54 | 50.21903 | 6.79636 | 28330 ft | 463 kts | 87° |
| 2026-05-05 15:54 | 50.22167 | 6.84643 | 28732 ft | 461 kts | 90° |
| 2026-05-05 15:54 | 50.22099 | 6.89633 | 29009 ft | 460 kts | 97° |
| 2026-05-05 15:55 | 50.21810 | 6.94593 | 29442 ft | 457 kts | 98° |
| 2026-05-05 15:55 | 50.21495 | 6.99500 | 29964 ft | 452 kts | 98° |
| 2026-05-05 15:55 | 50.21191 | 7.04361 | 30298 ft | 451 kts | 98° |
| 2026-05-05 15:55 | 50.20904 | 7.09254 | 30547 ft | 451 kts | 98° |
| 2026-05-05 15:56 | 50.20631 | 7.14130 | 30806 ft | 452 kts | 98° |
| 2026-05-05 15:56 | 50.20366 | 7.19015 | 31150 ft | 450 kts | 98° |
| 2026-05-05 15:56 | 50.20103 | 7.23866 | 31575 ft | 448 kts | 98° |
| 2026-05-05 15:56 | 50.19837 | 7.28700 | 32042 ft | 446 kts | 98° |
| 2026-05-05 15:57 | 50.19449 | 7.33479 | 32516 ft | 442 kts | 105° |
| 2026-05-05 15:57 | 50.18622 | 7.38038 | 33072 ft | 433 kts | 113° |
| 2026-05-05 15:57 | 50.17630 | 7.42473 | 33561 ft | 433 kts | 113° |
| 2026-05-05 15:57 | 50.16671 | 7.46857 | 33764 ft | 436 kts | 112° |
| 2026-05-05 15:58 | 50.15690 | 7.51411 | 33973 ft | 435 kts | 112° |
| 2026-05-05 15:58 | 50.14734 | 7.55885 | 34147 ft | 435 kts | 112° |
| 2026-05-05 15:58 | 50.13779 | 7.60370 | 34264 ft | 437 kts | 112° |
| 2026-05-05 15:58 | 50.12821 | 7.64867 | 34408 ft | 438 kts | 112° |
| 2026-05-05 15:59 | 50.11862 | 7.69366 | 34578 ft | 438 kts | 112° |
| 2026-05-05 15:59 | 50.10899 | 7.73869 | 34747 ft | 438 kts | 112° |
| 2026-05-05 15:59 | 50.09932 | 7.78381 | 34805 ft | 441 kts | 112° |
| 2026-05-05 16:00 | 50.07967 | 7.87488 | 34825 ft | 446 kts | 113° |
| 2026-05-05 16:00 | 50.05128 | 7.95916 | 34840 ft | 439 kts | 128° |
| 2026-05-05 16:01 | 50.01652 | 8.03739 | 34844 ft | 440 kts | 128° |
| 2026-05-05 16:01 | 49.98181 | 8.11595 | 34841 ft | 441 kts | 127° |
| 2026-05-05 16:02 | 49.94739 | 8.19464 | 34845 ft | 440 kts | 127° |
| 2026-05-05 16:02 | 49.91885 | 8.25994 | 34804 ft | 439 kts | 128° |
| 2026-05-05 16:03 | 49.88449 | 8.33831 | 34830 ft | 439 kts | 127° |
| 2026-05-05 16:03 | 49.85013 | 8.41632 | 34814 ft | 437 kts | 128° |
| 2026-05-05 16:04 | 49.81335 | 8.49082 | 34825 ft | 434 kts | 132° |
| 2026-05-05 16:04 | 49.77529 | 8.56334 | 34822 ft | 434 kts | 132° |
| 2026-05-05 16:05 | 49.73739 | 8.63588 | 34829 ft | 433 kts | 132° |
| 2026-05-05 16:05 | 49.69970 | 8.70850 | 34824 ft | 433 kts | 131° |
| 2026-05-05 16:06 | 49.66206 | 8.78107 | 34834 ft | 433 kts | 132° |
| 2026-05-05 16:06 | 49.62535 | 8.85164 | 34840 ft | 434 kts | 131° |
| 2026-05-05 16:07 | 49.58745 | 8.92431 | 34840 ft | 435 kts | 131° |
| 2026-05-05 16:07 | 49.54940 | 8.99708 | 34819 ft | 437 kts | 131° |
| 2026-05-05 16:08 | 49.51128 | 9.06980 | 34823 ft | 436 kts | 132° |
| 2026-05-05 16:08 | 49.47346 | 9.14171 | 34822 ft | 434 kts | 131° |
| 2026-05-05 16:09 | 49.43851 | 9.21750 | 34838 ft | 436 kts | 126° |
| 2026-05-05 16:09 | 49.40584 | 9.29592 | 34834 ft | 435 kts | 126° |
| 2026-05-05 16:10 | 49.37312 | 9.37399 | 34840 ft | 435 kts | 126° |
| 2026-05-05 16:10 | 49.34004 | 9.45168 | 34833 ft | 435 kts | 126° |
| 2026-05-05 16:11 | 49.30676 | 9.52919 | 34842 ft | 436 kts | 126° |
| 2026-05-05 16:12 | 49.23973 | 9.68456 | 34838 ft | 439 kts | 127° |
| 2026-05-05 16:13 | 49.15513 | 9.87950 | 34846 ft | 442 kts | 127° |
| 2026-05-05 16:13 | 49.12137 | 9.95692 | 34854 ft | 441 kts | 127° |
| 2026-05-05 16:14 | 49.05061 | 10.11043 | 34844 ft | 438 kts | 137° |
| 2026-05-05 16:15 | 48.96405 | 10.24003 | 34847 ft | 438 kts | 139° |
| 2026-05-05 16:16 | 48.87721 | 10.37079 | 34852 ft | 440 kts | 138° |
| 2026-05-05 16:17 | 48.81169 | 10.46935 | 34845 ft | 444 kts | 139° |
| 2026-05-05 16:18 | 48.74576 | 10.56814 | 34838 ft | 444 kts | 139° |
| 2026-05-05 16:19 | 48.67971 | 10.66672 | 34846 ft | 445 kts | 139° |
| 2026-05-05 16:19 | 48.61333 | 10.76543 | 34829 ft | 446 kts | 139° |
| 2026-05-05 16:20 | 48.53083 | 10.90658 | 34803 ft | 451 kts | 133° |
| 2026-05-05 16:22 | 48.43224 | 11.09168 | 34832 ft | 454 kts | 134° |
| 2026-05-05 16:23 | 48.35190 | 11.23939 | 34795 ft | 457 kts | 134° |
| 2026-05-05 16:23 | 48.29138 | 11.35016 | 34814 ft | 458 kts | 134° |
| 2026-05-05 16:24 | 48.25091 | 11.42397 | 34823 ft | 458 kts | 134° |
| 2026-05-05 16:25 | 48.19015 | 11.53444 | 34817 ft | 458 kts | 134° |
| 2026-05-05 16:25 | 48.12926 | 11.64467 | 34805 ft | 458 kts | 134° |
| 2026-05-05 16:26 | 48.04886 | 11.78953 | 34801 ft | 458 kts | 134° |
| 2026-05-05 16:27 | 48.00806 | 11.86275 | 34783 ft | 459 kts | 134° |
| 2026-05-05 16:27 | 47.96710 | 11.93605 | 34786 ft | 460 kts | 134° |
| 2026-05-05 16:28 | 47.92597 | 12.00945 | 34766 ft | 462 kts | 134° |
| 2026-05-05 16:28 | 47.88470 | 12.08292 | 34776 ft | 463 kts | 134° |
| 2026-05-05 16:29 | 47.84350 | 12.15604 | 34762 ft | 464 kts | 134° |
| 2026-05-05 16:29 | 47.80194 | 12.22963 | 34760 ft | 465 kts | 134° |
| 2026-05-05 16:30 | 47.76024 | 12.30327 | 34742 ft | 466 kts | 134° |
| 2026-05-05 16:30 | 47.71844 | 12.37687 | 34753 ft | 467 kts | 134° |
| 2026-05-05 16:31 | 47.67644 | 12.45065 | 34768 ft | 468 kts | 134° |
| 2026-05-05 16:31 | 47.63403 | 12.52493 | 34755 ft | 469 kts | 135° |
| 2026-05-05 16:32 | 47.58954 | 12.59398 | 34774 ft | 465 kts | 141° |
| 2026-05-05 16:32 | 47.54237 | 12.65939 | 34773 ft | 464 kts | 141° |
| 2026-05-05 16:33 | 47.49485 | 12.72500 | 34779 ft | 465 kts | 141° |
| 2026-05-05 16:33 | 47.44810 | 12.79011 | 34792 ft | 465 kts | 141° |
| 2026-05-05 16:34 | 47.40120 | 12.85603 | 34812 ft | 466 kts | 141° |
| 2026-05-05 16:34 | 47.35486 | 12.92111 | 34826 ft | 466 kts | 141° |
| 2026-05-05 16:35 | 47.30781 | 12.98692 | 34815 ft | 468 kts | 140° |
| 2026-05-05 16:35 | 47.26052 | 13.05285 | 34847 ft | 469 kts | 141° |
| 2026-05-05 16:36 | 47.21311 | 13.11877 | 34861 ft | 469 kts | 141° |
| 2026-05-05 16:36 | 47.16565 | 13.18459 | 34872 ft | 468 kts | 141° |
| 2026-05-05 16:37 | 47.11829 | 13.25016 | 34844 ft | 467 kts | 141° |
| 2026-05-05 16:37 | 47.07106 | 13.31532 | 34881 ft | 466 kts | 141° |
| 2026-05-05 16:38 | 47.02390 | 13.38020 | 34892 ft | 464 kts | 141° |
| 2026-05-05 16:38 | 46.97685 | 13.44479 | 34926 ft | 463 kts | 141° |
| 2026-05-05 16:39 | 46.92996 | 13.50900 | 34922 ft | 460 kts | 141° |
| 2026-05-05 16:39 | 46.88313 | 13.57295 | 34938 ft | 462 kts | 141° |
| 2026-05-05 16:40 | 46.83605 | 13.63709 | 34929 ft | 464 kts | 141° |
| 2026-05-05 16:40 | 46.78863 | 13.70152 | 34941 ft | 468 kts | 141° |
| 2026-05-05 16:41 | 46.74087 | 13.76625 | 34956 ft | 469 kts | 141° |
| 2026-05-05 16:41 | 46.69284 | 13.83118 | 34959 ft | 473 kts | 141° |
| 2026-05-05 16:42 | 46.64441 | 13.89650 | 34936 ft | 475 kts | 141° |
| 2026-05-05 16:42 | 46.59583 | 13.96187 | 34967 ft | 476 kts | 141° |
| 2026-05-05 16:43 | 46.54717 | 14.02718 | 34964 ft | 476 kts | 141° |
| 2026-05-05 16:43 | 46.49859 | 14.09222 | 34954 ft | 474 kts | 141° |
| 2026-05-05 16:44 | 46.45024 | 14.15678 | 34953 ft | 471 kts | 141° |
| 2026-05-05 16:44 | 46.40207 | 14.22094 | 34982 ft | 470 kts | 141° |
| 2026-05-05 16:45 | 46.35386 | 14.28496 | 34992 ft | 471 kts | 141° |
| 2026-05-05 16:45 | 46.30552 | 14.34899 | 34998 ft | 471 kts | 141° |
| 2026-05-05 16:46 | 46.25740 | 14.41257 | 34992 ft | 472 kts | 141° |
| 2026-05-05 16:46 | 46.20889 | 14.47654 | 34994 ft | 472 kts | 141° |
| 2026-05-05 16:47 | 46.16030 | 14.54044 | 34991 ft | 473 kts | 141° |
| 2026-05-05 16:47 | 46.11160 | 14.60433 | 34995 ft | 474 kts | 141° |
| 2026-05-05 16:48 | 46.06278 | 14.66820 | 34993 ft | 474 kts | 141° |
| 2026-05-05 16:48 | 46.01387 | 14.73205 | 34988 ft | 475 kts | 141° |
| 2026-05-05 16:49 | 45.97317 | 14.78507 | 34968 ft | 475 kts | 141° |
| 2026-05-05 16:49 | 45.92410 | 14.84882 | 34973 ft | 475 kts | 141° |
| 2026-05-05 16:50 | 45.87497 | 14.91250 | 34973 ft | 476 kts | 141° |
| 2026-05-05 16:50 | 45.82577 | 14.97612 | 34973 ft | 476 kts | 141° |
| 2026-05-05 16:51 | 45.77650 | 15.03967 | 34973 ft | 477 kts | 141° |
| 2026-05-05 16:51 | 45.72712 | 15.10320 | 34955 ft | 478 kts | 141° |
| 2026-05-05 16:52 | 45.67762 | 15.16673 | 34969 ft | 478 kts | 141° |
| 2026-05-05 16:52 | 45.62799 | 15.23030 | 34966 ft | 479 kts | 141° |
| 2026-05-05 16:53 | 45.57843 | 15.29394 | 34969 ft | 480 kts | 139° |
| 2026-05-05 16:53 | 45.53488 | 15.36683 | 34967 ft | 484 kts | 130° |
| 2026-05-05 16:54 | 45.49389 | 15.44296 | 34971 ft | 484 kts | 130° |
| 2026-05-05 16:54 | 45.45275 | 15.51878 | 34975 ft | 484 kts | 130° |
| 2026-05-05 16:55 | 45.41120 | 15.59408 | 34976 ft | 483 kts | 131° |
| 2026-05-05 16:55 | 45.36949 | 15.66899 | 34975 ft | 483 kts | 131° |
| 2026-05-05 16:56 | 45.32759 | 15.74396 | 34985 ft | 484 kts | 131° |
| 2026-05-05 16:56 | 45.28562 | 15.81890 | 34985 ft | 485 kts | 131° |
| 2026-05-05 16:57 | 45.24354 | 15.89389 | 34990 ft | 485 kts | 131° |
| 2026-05-05 16:57 | 45.20145 | 15.96869 | 34989 ft | 485 kts | 131° |
| 2026-05-05 16:58 | 45.15921 | 16.04356 | 34994 ft | 487 kts | 131° |
| 2026-05-05 16:58 | 45.11713 | 16.11795 | 34976 ft | 488 kts | 131° |
| 2026-05-05 16:59 | 45.07462 | 16.19290 | 34987 ft | 489 kts | 131° |
| 2026-05-05 16:59 | 45.03196 | 16.26792 | 34991 ft | 489 kts | 131° |
| 2026-05-05 17:00 | 44.98923 | 16.34287 | 34976 ft | 490 kts | 131° |
| 2026-05-05 17:00 | 44.94638 | 16.41783 | 34980 ft | 491 kts | 131° |
| 2026-05-05 17:01 | 44.90346 | 16.49272 | 34987 ft | 491 kts | 131° |
| 2026-05-05 17:01 | 44.86039 | 16.56765 | 34986 ft | 492 kts | 131° |
| 2026-05-05 17:02 | 44.81733 | 16.64239 | 34978 ft | 491 kts | 131° |
| 2026-05-05 17:02 | 44.77423 | 16.71699 | 34980 ft | 491 kts | 131° |
| 2026-05-05 17:03 | 44.73114 | 16.79138 | 34983 ft | 490 kts | 131° |
| 2026-05-05 17:03 | 44.68802 | 16.86564 | 34972 ft | 490 kts | 131° |
| 2026-05-05 17:04 | 44.64480 | 16.93986 | 34984 ft | 491 kts | 131° |
| 2026-05-05 17:04 | 44.60146 | 17.01411 | 34988 ft | 491 kts | 131° |
| 2026-05-05 17:05 | 44.55810 | 17.08819 | 35005 ft | 492 kts | 131° |
| 2026-05-05 17:05 | 44.51465 | 17.16225 | 34993 ft | 491 kts | 132° |
| 2026-05-05 17:06 | 44.47122 | 17.23606 | 34989 ft | 491 kts | 132° |
| 2026-05-05 17:06 | 44.42772 | 17.30981 | 34996 ft | 492 kts | 132° |
| 2026-05-05 17:07 | 44.38412 | 17.38354 | 35013 ft | 493 kts | 132° |
| 2026-05-05 17:07 | 44.34035 | 17.45736 | 35027 ft | 493 kts | 132° |
| 2026-05-05 17:08 | 44.29653 | 17.53108 | 35026 ft | 493 kts | 132° |
| 2026-05-05 17:08 | 44.25264 | 17.60473 | 35034 ft | 494 kts | 132° |
| 2026-05-05 17:09 | 44.20867 | 17.67833 | 35029 ft | 494 kts | 132° |
| 2026-05-05 17:09 | 44.16463 | 17.75182 | 35023 ft | 494 kts | 132° |
| 2026-05-05 17:10 | 44.12061 | 17.82513 | 35048 ft | 494 kts | 132° |
| 2026-05-05 17:10 | 44.07650 | 17.89839 | 35050 ft | 494 kts | 132° |
| 2026-05-05 17:11 | 44.03229 | 17.97162 | 35055 ft | 495 kts | 132° |
| 2026-05-05 17:11 | 43.98797 | 18.04487 | 35058 ft | 495 kts | 132° |
| 2026-05-05 17:12 | 43.94370 | 18.11783 | 35047 ft | 494 kts | 132° |
| 2026-05-05 17:12 | 43.92203 | 18.15352 | 35011 ft | 478 kts | 132° |
| 2026-05-05 17:12 | 43.90103 | 18.18876 | 34628 ft | 473 kts | 130° |
| 2026-05-05 17:13 | 43.88136 | 18.22594 | 33468 ft | 485 kts | 124° |
| 2026-05-05 17:13 | 43.86181 | 18.26552 | 32225 ft | 512 kts | 128° |
| 2026-05-05 17:13 | 43.81960 | 18.34304 | 32201 ft | 491 kts | 132° |
| 2026-05-05 17:14 | 43.79666 | 18.37777 | 32309 ft | 488 kts | 137° |
| 2026-05-05 17:14 | 43.77256 | 18.41077 | 32621 ft | 486 kts | 138° |
| 2026-05-05 17:14 | 43.74873 | 18.44374 | 32990 ft | 484 kts | 137° |
| 2026-05-05 17:14 | 43.72541 | 18.47751 | 33232 ft | 486 kts | 135° |
| 2026-05-05 17:15 | 43.70291 | 18.51170 | 33397 ft | 489 kts | 134° |
| 2026-05-05 17:15 | 43.68014 | 18.54761 | 33539 ft | 492 kts | 133° |
| 2026-05-05 17:15 | 43.65819 | 18.58299 | 33885 ft | 489 kts | 133° |
| 2026-05-05 17:15 | 43.63628 | 18.61863 | 34005 ft | 493 kts | 132° |
| 2026-05-05 17:16 | 43.59152 | 18.69150 | 34180 ft | 501 kts | 132° |
| 2026-05-05 17:16 | 43.56888 | 18.72819 | 34388 ft | 501 kts | 132° |
| 2026-05-05 17:16 | 43.54634 | 18.76460 | 34726 ft | 498 kts | 133° |
| 2026-05-05 17:17 | 43.52388 | 18.80079 | 34952 ft | 496 kts | 133° |
| 2026-05-05 17:17 | 43.50109 | 18.83739 | 35051 ft | 498 kts | 133° |
| 2026-05-05 17:17 | 43.45591 | 18.90981 | 35047 ft | 498 kts | 132° |
| 2026-05-05 17:18 | 43.41095 | 18.98173 | 35037 ft | 494 kts | 133° |
| 2026-05-05 17:18 | 43.36648 | 19.05268 | 35033 ft | 493 kts | 133° |
| 2026-05-05 17:19 | 43.32170 | 19.12393 | 35044 ft | 493 kts | 133° |
| 2026-05-05 17:19 | 43.27670 | 19.19537 | 35047 ft | 495 kts | 133° |
| 2026-05-05 17:20 | 43.23159 | 19.26682 | 35047 ft | 496 kts | 133° |
| 2026-05-05 17:20 | 43.18626 | 19.33844 | 35035 ft | 498 kts | 133° |
| 2026-05-05 17:21 | 43.14079 | 19.41010 | 35041 ft | 498 kts | 133° |
| 2026-05-05 17:22 | 43.07247 | 19.51744 | 35045 ft | 498 kts | 133° |
| 2026-05-05 17:22 | 43.02693 | 19.58879 | 35035 ft | 497 kts | 133° |
| 2026-05-05 17:23 | 42.98141 | 19.65991 | 35035 ft | 497 kts | 133° |
| 2026-05-05 17:23 | 42.93597 | 19.73074 | 35030 ft | 495 kts | 133° |
| 2026-05-05 17:24 | 42.89057 | 19.80133 | 35037 ft | 495 kts | 132° |
| 2026-05-05 17:24 | 42.84517 | 19.87178 | 35052 ft | 495 kts | 133° |
| 2026-05-05 17:25 | 42.79965 | 19.94223 | 35036 ft | 496 kts | 133° |
| 2026-05-05 17:25 | 42.75401 | 20.01271 | 35051 ft | 497 kts | 133° |
| 2026-05-05 17:26 | 42.70919 | 20.08435 | 35043 ft | 497 kts | 130° |
| 2026-05-05 17:26 | 42.66547 | 20.15740 | 35038 ft | 499 kts | 130° |
| 2026-05-05 17:27 | 42.62164 | 20.23043 | 35035 ft | 499 kts | 130° |
| 2026-05-05 17:27 | 42.57762 | 20.30326 | 35016 ft | 499 kts | 130° |
| 2026-05-05 17:28 | 42.53326 | 20.37571 | 35019 ft | 500 kts | 130° |
| 2026-05-05 17:28 | 42.48880 | 20.44829 | 35039 ft | 501 kts | 130° |
| 2026-05-05 17:29 | 42.44424 | 20.52096 | 35034 ft | 501 kts | 130° |
| 2026-05-05 17:29 | 42.39964 | 20.59358 | 35037 ft | 502 kts | 130° |
| 2026-05-05 17:30 | 42.35499 | 20.66609 | 35043 ft | 501 kts | 130° |
| 2026-05-05 17:30 | 42.31030 | 20.73847 | 35030 ft | 501 kts | 130° |
| 2026-05-05 17:31 | 42.26553 | 20.81080 | 35057 ft | 502 kts | 130° |
| 2026-05-05 17:31 | 42.22066 | 20.88312 | 35045 ft | 503 kts | 130° |
| 2026-05-05 17:32 | 42.17573 | 20.95538 | 35030 ft | 503 kts | 130° |
| 2026-05-05 17:32 | 42.13078 | 21.02751 | 35024 ft | 503 kts | 130° |
| 2026-05-05 17:33 | 42.09200 | 21.08553 | 35008 ft | 501 kts | 136° |
| 2026-05-05 17:33 | 42.04123 | 21.14964 | 35018 ft | 500 kts | 138° |
| 2026-05-05 17:33 | 42.01542 | 21.18131 | 34643 ft | 506 kts | 138° |
| 2026-05-05 17:34 | 41.98943 | 21.21333 | 34021 ft | 506 kts | 137° |
| 2026-05-05 17:34 | 41.96366 | 21.24536 | 33293 ft | 505 kts | 137° |
| 2026-05-05 17:34 | 41.93797 | 21.27752 | 32553 ft | 505 kts | 137° |
| 2026-05-05 17:34 | 41.91234 | 21.30972 | 31860 ft | 504 kts | 137° |
| 2026-05-05 17:35 | 41.88676 | 21.34196 | 31122 ft | 504 kts | 137° |
| 2026-05-05 17:35 | 41.86121 | 21.37418 | 30390 ft | 504 kts | 137° |
| 2026-05-05 17:35 | 41.83561 | 21.40642 | 29544 ft | 506 kts | 137° |
| 2026-05-05 17:35 | 41.80996 | 21.43867 | 28706 ft | 505 kts | 137° |
| 2026-05-05 17:36 | 41.78451 | 21.47063 | 28176 ft | 497 kts | 137° |
| 2026-05-05 17:36 | 41.75939 | 21.50210 | 27614 ft | 491 kts | 137° |
| 2026-05-05 17:36 | 41.73457 | 21.53315 | 27046 ft | 486 kts | 137° |
| 2026-05-05 17:36 | 41.71000 | 21.56385 | 26484 ft | 481 kts | 137° |
| 2026-05-05 17:37 | 41.68569 | 21.59420 | 25943 ft | 476 kts | 137° |
| 2026-05-05 17:37 | 41.66157 | 21.62428 | 25402 ft | 471 kts | 137° |
| 2026-05-05 17:37 | 41.63770 | 21.65400 | 24867 ft | 467 kts | 137° |
| 2026-05-05 17:37 | 41.61405 | 21.68344 | 24339 ft | 463 kts | 137° |
| 2026-05-05 17:38 | 41.59057 | 21.71262 | 23808 ft | 459 kts | 137° |
| 2026-05-05 17:38 | 41.56727 | 21.74156 | 23191 ft | 456 kts | 137° |
| 2026-05-05 17:38 | 41.54411 | 21.77029 | 22616 ft | 451 kts | 137° |
| 2026-05-05 17:38 | 41.52125 | 21.79863 | 22087 ft | 446 kts | 137° |
| 2026-05-05 17:39 | 41.49862 | 21.82663 | 21530 ft | 442 kts | 137° |
| 2026-05-05 17:39 | 41.47623 | 21.85434 | 20996 ft | 437 kts | 137° |
| 2026-05-05 17:39 | 41.45406 | 21.88173 | 20491 ft | 433 kts | 137° |
| 2026-05-05 17:39 | 41.43206 | 21.90888 | 19976 ft | 428 kts | 137° |
| 2026-05-05 17:40 | 41.41029 | 21.93573 | 19466 ft | 425 kts | 137° |
| 2026-05-05 17:40 | 41.38871 | 21.96232 | 18958 ft | 421 kts | 137° |
| 2026-05-05 17:40 | 41.36729 | 21.98869 | 18462 ft | 418 kts | 137° |
| 2026-05-05 17:40 | 41.34602 | 22.01485 | 17920 ft | 415 kts | 137° |
| 2026-05-05 17:41 | 41.32488 | 22.04082 | 17381 ft | 411 kts | 137° |
| 2026-05-05 17:41 | 41.30397 | 22.06650 | 16839 ft | 407 kts | 137° |
| 2026-05-05 17:41 | 41.28325 | 22.09191 | 16336 ft | 403 kts | 137° |
| 2026-05-05 17:41 | 41.26275 | 22.11704 | 15855 ft | 399 kts | 137° |
| 2026-05-05 17:42 | 41.24244 | 22.14191 | 15373 ft | 396 kts | 136° |
| 2026-05-05 17:42 | 41.22228 | 22.16659 | 14894 ft | 393 kts | 136° |
| 2026-05-05 17:42 | 41.20224 | 22.19108 | 14418 ft | 390 kts | 136° |
| 2026-05-05 17:42 | 41.18236 | 22.21534 | 13935 ft | 387 kts | 137° |
| 2026-05-05 17:43 | 41.16132 | 22.23739 | 13414 ft | 385 kts | 147° |
| 2026-05-05 17:43 | 41.13782 | 22.25372 | 13129 ft | 377 kts | 157° |
| 2026-05-05 17:43 | 41.11370 | 22.26662 | 12850 ft | 371 kts | 158° |
| 2026-05-05 17:43 | 41.08977 | 22.27919 | 12412 ft | 369 kts | 158° |
| 2026-05-05 17:44 | 41.06603 | 22.29168 | 11940 ft | 366 kts | 158° |
| 2026-05-05 17:44 | 41.04244 | 22.30418 | 11485 ft | 363 kts | 158° |
| 2026-05-05 17:44 | 41.01907 | 22.31664 | 11075 ft | 360 kts | 158° |
| 2026-05-05 17:44 | 40.99627 | 22.32885 | 10919 ft | 348 kts | 158° |
| 2026-05-05 17:45 | 40.97416 | 22.34070 | 10766 ft | 338 kts | 158° |
| 2026-05-05 17:45 | 40.95272 | 22.35222 | 10629 ft | 328 kts | 158° |
| 2026-05-05 17:45 | 40.93183 | 22.36342 | 10481 ft | 319 kts | 157° |